createdAt,value
2023-05-22T00:01:02.183Z,10.27
2023-05-22T00:02:04.778Z,11.60
2023-05-22T00:03:08.464Z,12.52
2023-05-22T00:04:13.282Z,11.10
2023-05-22T00:05:15.687Z,12.90
2023-05-22T00:06:18.486Z,11.85
2023-05-22T00:07:20.742Z,14.00
2023-05-22T00:08:23.037Z,9.73
2023-05-22T00:09:26.261Z,16.63
2023-05-22T00:10:28.471Z,9.93
2023-05-22T00:11:30.834Z,14.07
2023-05-22T00:12:33.435Z,12.25
2023-05-22T00:13:35.620Z,11.40
2023-05-22T00:14:37.878Z,10.07
2023-05-22T00:15:40.067Z,13.60
2023-05-22T00:16:42.656Z,12.43
2023-05-22T00:17:44.951Z,10.48
2023-05-22T00:18:47.538Z,11.20
2023-05-22T00:19:49.923Z,9.27
2023-05-22T00:20:52.109Z,15.23
2023-05-22T00:21:54.332Z,12.77
2023-05-22T00:22:57.925Z,14.13
2023-05-22T00:24:01.578Z,11.02
2023-05-22T00:25:05.608Z,14.68
2023-05-22T00:26:07.934Z,9.88
2023-05-22T00:27:10.783Z,11.55
2023-05-22T00:28:13.584Z,13.18
2023-05-22T00:29:16.147Z,9.70
2023-05-22T00:30:18.690Z,12.18
2023-05-22T00:31:21.036Z,11.80
2023-05-22T00:32:24.055Z,12.52
2023-05-22T00:33:26.534Z,11.55
2023-05-22T00:34:28.755Z,12.00
2023-05-22T00:35:31.083Z,11.43
2023-05-22T00:36:33.265Z,10.73
2023-05-22T00:37:35.589Z,11.00
2023-05-22T00:38:38.139Z,12.00
2023-05-22T00:39:40.538Z,10.48
2023-05-22T00:40:42.757Z,12.63
2023-05-22T00:41:45.034Z,10.65
2023-05-22T00:42:47.406Z,9.35
2023-05-22T00:43:51.111Z,12.15
2023-05-22T00:44:53.517Z,9.13
2023-05-22T00:45:55.844Z,9.60
2023-05-22T00:46:58.110Z,12.13
2023-05-22T00:48:00.418Z,10.32
2023-05-22T00:49:03.123Z,10.43
2023-05-22T00:50:06.517Z,16.50
2023-05-22T00:51:09.128Z,10.68
2023-05-22T00:52:12.973Z,13.00
2023-05-22T00:53:15.801Z,10.00
2023-05-22T00:54:18.086Z,9.15
2023-05-22T00:55:20.312Z,9.98
2023-05-22T00:56:22.576Z,13.23
2023-05-22T00:57:25.378Z,8.95
2023-05-22T00:58:27.735Z,10.52
2023-05-22T00:59:31.189Z,9.15
2023-05-22T01:00:36.941Z,11.02
2023-05-22T01:01:42.133Z,11.25
2023-05-22T01:02:44.776Z,11.88
2023-05-22T01:03:47.901Z,13.07
2023-05-22T01:04:50.276Z,11.27
2023-05-22T01:05:53.760Z,9.48
2023-05-22T01:06:56.030Z,11.05
2023-05-22T01:07:58.865Z,11.82
2023-05-22T01:09:01.104Z,9.43
2023-05-22T01:10:05.994Z,10.07
2023-05-22T01:11:15.496Z,14.75
2023-05-22T01:12:44.872Z,12.88
2023-05-22T01:14:03.448Z,8.43
2023-05-22T01:15:06.097Z,13.13
2023-05-22T01:16:19.040Z,10.35
2023-05-22T01:17:53.402Z,9.27
2023-05-22T01:19:02.756Z,11.20
2023-05-22T01:20:41.840Z,9.85
2023-05-22T01:22:21.516Z,9.77
2023-05-22T01:23:26.467Z,8.05
2023-05-22T01:25:02.088Z,11.30
2023-05-22T01:26:07.225Z,11.23
2023-05-22T01:27:11.980Z,11.98
2023-05-22T01:28:32.521Z,10.18
2023-05-22T01:29:41.928Z,11.43
2023-05-22T01:30:49.031Z,9.43
2023-05-22T01:31:55.620Z,10.60
2023-05-22T01:32:59.746Z,9.20
2023-05-22T01:34:04.033Z,11.30
2023-05-22T01:35:11.644Z,8.80
2023-05-22T01:36:20.063Z,9.27
2023-05-22T01:37:24.310Z,8.25
2023-05-22T01:38:29.592Z,10.57
2023-05-22T01:39:32.372Z,11.90
2023-05-22T01:40:34.760Z,13.20
2023-05-22T01:41:40.778Z,12.02
2023-05-22T01:42:43.160Z,8.90
2023-05-22T01:43:46.237Z,12.02
2023-05-22T01:44:49.157Z,11.48
2023-05-22T01:45:51.557Z,8.45
2023-05-22T01:46:54.106Z,13.65
2023-05-22T01:47:56.300Z,9.85
2023-05-22T01:48:58.801Z,9.75
2023-05-22T01:50:01.585Z,9.45
2023-05-22T01:51:11.641Z,9.30
2023-05-22T01:52:38.714Z,15.23
2023-05-22T01:53:52.191Z,9.45
2023-05-22T01:55:05.107Z,9.57
2023-05-22T01:56:12.990Z,13.40
2023-05-22T01:57:26.870Z,12.75
2023-05-22T01:58:39.696Z,9.23
2023-05-22T01:59:48.586Z,13.13
2023-05-22T02:00:54.662Z,9.23
2023-05-22T02:02:00.719Z,10.13
2023-05-22T02:03:09.043Z,9.15
2023-05-22T02:04:13.632Z,8.15
2023-05-22T02:05:18.948Z,10.43
2023-05-22T02:06:21.283Z,14.88
2023-05-22T02:07:27.565Z,10.00
2023-05-22T02:08:31.541Z,9.85
2023-05-22T02:09:35.366Z,7.45
2023-05-22T02:10:39.194Z,9.27
2023-05-22T02:11:47.057Z,9.25
2023-05-22T02:12:49.386Z,9.82
2023-05-22T02:13:52.267Z,11.13
2023-05-22T02:14:55.216Z,9.52
2023-05-22T02:15:58.591Z,9.00
2023-05-22T02:17:02.183Z,8.82
2023-05-22T02:18:11.216Z,15.02
2023-05-22T02:19:15.386Z,10.02
2023-05-22T02:20:17.859Z,9.27
2023-05-22T02:21:20.131Z,9.82
2023-05-22T02:22:22.340Z,7.57
2023-05-22T02:23:25.027Z,9.50
2023-05-22T02:24:27.397Z,8.43
2023-05-22T02:25:29.764Z,10.95
2023-05-22T02:26:32.362Z,9.00
2023-05-22T02:27:35.823Z,7.22
2023-05-22T02:28:37.993Z,9.30
2023-05-22T02:29:41.751Z,9.27
2023-05-22T02:30:44.417Z,12.90
2023-05-22T02:31:46.659Z,10.45
2023-05-22T02:32:49.028Z,10.45
2023-05-22T02:33:51.279Z,11.35
2023-05-22T02:34:54.913Z,9.75
2023-05-22T02:35:57.169Z,11.35
2023-05-22T02:37:00.115Z,9.65
2023-05-22T02:38:03.394Z,12.57
2023-05-22T02:39:05.853Z,9.40
2023-05-22T02:40:10.087Z,11.90
2023-05-22T02:41:12.303Z,9.30
2023-05-22T02:42:14.498Z,10.38
2023-05-22T02:43:16.763Z,8.10
2023-05-22T02:44:19.152Z,12.05
2023-05-22T02:45:22.308Z,14.65
2023-05-22T02:46:24.544Z,15.45
2023-05-22T02:47:27.073Z,12.52
2023-05-22T02:48:29.449Z,13.55
2023-05-22T02:49:31.750Z,7.18
2023-05-22T02:50:33.959Z,11.57
2023-05-22T02:51:36.773Z,9.38
2023-05-22T02:52:39.319Z,10.95
2023-05-22T02:53:41.729Z,15.25
2023-05-22T02:54:44.389Z,9.57
2023-05-22T02:55:47.023Z,7.95
2023-05-22T02:56:49.430Z,15.35
2023-05-22T02:57:51.631Z,10.75
2023-05-22T02:58:53.875Z,9.43
2023-05-22T02:59:57.562Z,10.65
2023-05-22T03:00:59.979Z,9.63
2023-05-22T03:02:02.722Z,10.77
2023-05-22T03:03:05.875Z,17.67
2023-05-22T03:04:08.236Z,10.15
2023-05-22T03:05:10.506Z,8.45
2023-05-22T03:06:12.692Z,9.57
2023-05-22T03:07:14.878Z,9.63
2023-05-22T03:08:18.129Z,9.43
2023-05-22T03:09:20.345Z,15.23
2023-05-22T03:10:22.981Z,10.50
2023-05-22T03:11:25.686Z,10.82
2023-05-22T03:12:28.126Z,10.25
2023-05-22T03:13:30.370Z,8.10
2023-05-22T03:14:32.552Z,8.20
2023-05-22T03:15:34.749Z,13.57
2023-05-22T03:16:45.355Z,8.48
2023-05-22T03:17:47.631Z,12.13
2023-05-22T03:18:51.201Z,11.80
2023-05-22T03:19:53.495Z,10.75
2023-05-22T03:20:55.788Z,9.63
2023-05-22T03:21:58.136Z,11.13
2023-05-22T03:23:00.378Z,11.48
2023-05-22T03:24:03.273Z,11.35
2023-05-22T03:25:06.439Z,10.63
2023-05-22T03:26:08.609Z,10.60
2023-05-22T03:27:16.399Z,8.93
2023-05-22T03:28:18.829Z,10.27
2023-05-22T03:29:22.288Z,10.95
2023-05-22T03:30:24.762Z,14.73
2023-05-22T03:31:40.005Z,7.90
2023-05-22T03:32:46.189Z,7.78
2023-05-22T03:33:48.997Z,11.07
2023-05-22T03:34:51.485Z,10.95
2023-05-22T03:35:53.777Z,8.70
2023-05-22T03:36:58.001Z,15.10
2023-05-22T03:38:00.664Z,9.15
2023-05-22T03:39:04.066Z,9.27
2023-05-22T03:40:10.191Z,10.88
2023-05-22T03:41:12.395Z,10.57
2023-05-22T03:42:14.553Z,10.45
2023-05-22T03:43:16.749Z,8.68
2023-05-22T03:44:19.296Z,8.75
2023-05-22T03:45:21.575Z,8.55
2023-05-22T03:46:24.107Z,8.38
2023-05-22T03:47:26.560Z,10.18
2023-05-22T03:48:28.839Z,9.98
2023-05-22T03:49:31.085Z,8.80
2023-05-22T03:50:33.245Z,12.23
2023-05-22T03:51:35.657Z,11.07
2023-05-22T03:52:38.333Z,8.65
2023-05-22T03:53:40.522Z,12.48
2023-05-22T03:54:42.707Z,9.00
2023-05-22T03:55:44.914Z,11.32
2023-05-22T03:56:47.130Z,12.70
2023-05-22T03:57:49.327Z,9.68
2023-05-22T03:58:52.863Z,10.32
2023-05-22T03:59:55.282Z,14.52
2023-05-22T04:00:58.674Z,11.32
2023-05-22T04:02:05.539Z,8.77
2023-05-22T04:03:12.939Z,7.65
2023-05-22T04:04:16.505Z,14.13
2023-05-22T04:05:18.827Z,8.98
2023-05-22T04:06:21.813Z,8.57
2023-05-22T04:07:24.139Z,8.98
2023-05-22T04:08:26.375Z,9.20
2023-05-22T04:09:32.056Z,10.02
2023-05-22T04:10:35.784Z,10.80
2023-05-22T04:11:42.215Z,7.38
2023-05-22T04:12:44.500Z,8.25
2023-05-22T04:13:49.815Z,10.70
2023-05-22T04:14:52.006Z,11.88
2023-05-22T04:15:54.332Z,11.73
2023-05-22T04:16:56.529Z,7.65
2023-05-22T04:17:58.713Z,5.93
2023-05-22T04:19:03.292Z,12.65
2023-05-22T04:20:06.569Z,9.75
2023-05-22T04:21:09.830Z,11.77
2023-05-22T04:22:12.125Z,10.20
2023-05-22T04:23:14.367Z,9.55
2023-05-22T04:24:16.561Z,9.70
2023-05-22T04:25:18.726Z,7.53
2023-05-22T04:26:20.933Z,8.77
2023-05-22T04:27:23.209Z,9.82
2023-05-22T04:28:26.741Z,8.68
2023-05-22T04:29:29.300Z,7.90
2023-05-22T04:30:37.376Z,11.63
2023-05-22T04:31:40.153Z,9.68
2023-05-22T04:32:43.638Z,10.05
2023-05-22T04:33:48.301Z,10.07
2023-05-22T04:34:53.500Z,9.10
2023-05-22T04:35:55.866Z,11.00
2023-05-22T04:36:58.161Z,8.95
2023-05-22T04:38:03.562Z,9.80
2023-05-22T04:39:05.791Z,9.60
2023-05-22T04:40:08.898Z,7.28
2023-05-22T04:41:13.456Z,7.85
2023-05-22T04:42:16.122Z,8.50
2023-05-22T04:43:18.837Z,7.35
2023-05-22T04:44:23.994Z,10.20
2023-05-22T04:45:28.636Z,10.45
2023-05-22T04:46:36.533Z,9.32
2023-05-22T04:47:41.718Z,10.57
2023-05-22T04:48:44.413Z,7.90
2023-05-22T04:49:46.672Z,10.02
2023-05-22T04:50:49.935Z,10.07
2023-05-22T04:51:54.039Z,13.73
2023-05-22T04:52:57.437Z,7.95
2023-05-22T04:53:59.992Z,10.10
2023-05-22T04:55:05.200Z,9.93
2023-05-22T04:56:08.310Z,9.00
2023-05-22T04:57:10.740Z,7.05
2023-05-22T04:58:13.106Z,9.63
2023-05-22T04:59:16.425Z,10.18
2023-05-22T05:00:19.276Z,8.75
2023-05-22T05:01:22.779Z,8.20
2023-05-22T05:02:25.193Z,11.10
2023-05-22T05:03:28.497Z,7.95
2023-05-22T05:04:31.163Z,7.55
2023-05-22T05:05:34.112Z,10.52
2023-05-22T05:06:37.814Z,11.73
2023-05-22T05:07:40.324Z,13.60
2023-05-22T05:08:44.343Z,7.45
2023-05-22T05:09:46.699Z,8.90
2023-05-22T05:10:49.016Z,8.90
2023-05-22T05:11:52.713Z,8.13
2023-05-22T05:12:55.003Z,9.05
2023-05-22T05:13:57.309Z,9.45
2023-05-22T05:14:59.517Z,10.50
2023-05-22T05:16:01.779Z,7.70
2023-05-22T05:17:04.714Z,9.45
2023-05-22T05:18:08.670Z,8.57
2023-05-22T05:19:11.147Z,10.50
2023-05-22T05:20:14.602Z,15.50
2023-05-22T05:21:16.950Z,10.65
2023-05-22T05:22:19.652Z,12.63
2023-05-22T05:23:22.849Z,8.98
2023-05-22T05:24:25.169Z,11.95
2023-05-22T05:25:27.427Z,9.20
2023-05-22T05:26:29.848Z,13.07
2023-05-22T05:27:33.394Z,9.13
2023-05-22T05:28:37.548Z,8.18
2023-05-22T05:29:41.365Z,7.57
2023-05-22T05:30:58.313Z,9.38
2023-05-22T05:32:13.003Z,11.27
2023-05-22T05:33:29.058Z,8.77
2023-05-22T05:34:37.533Z,10.25
2023-05-22T05:35:43.226Z,11.93
2023-05-22T05:36:48.005Z,8.48
2023-05-22T05:37:51.720Z,12.93
2023-05-22T05:38:54.244Z,9.45
2023-05-22T05:39:56.833Z,8.93
2023-05-22T05:40:59.195Z,8.48
2023-05-22T05:42:02.444Z,8.23
2023-05-22T05:43:05.869Z,9.80
2023-05-22T05:44:10.781Z,8.88
2023-05-22T05:45:14.120Z,9.13
2023-05-22T05:46:17.426Z,7.45
2023-05-22T05:47:19.695Z,13.23
2023-05-22T05:48:21.972Z,8.18
2023-05-22T05:49:24.737Z,10.93
2023-05-22T05:50:27.246Z,8.75
2023-05-22T05:51:30.047Z,10.23
2023-05-22T05:52:33.488Z,10.70
2023-05-22T05:53:41.020Z,11.27
2023-05-22T05:54:47.416Z,9.75
2023-05-22T05:55:52.032Z,9.25
2023-05-22T05:56:55.060Z,8.90
2023-05-22T05:57:57.394Z,8.35
2023-05-22T05:59:19.948Z,7.55
2023-05-22T06:01:46.216Z,12.07
2023-05-22T06:02:55.179Z,9.02
2023-05-22T06:04:08.948Z,9.88
2023-05-22T06:05:13.537Z,12.32
2023-05-22T06:06:17.529Z,7.95
2023-05-22T06:07:39.697Z,16.27
2023-05-22T06:08:44.183Z,11.52
2023-05-22T06:09:46.510Z,10.82
2023-05-22T06:11:08.971Z,10.88
2023-05-22T06:12:14.276Z,11.52
2023-05-22T06:13:19.676Z,13.10
2023-05-22T06:14:22.423Z,11.05
2023-05-22T06:15:25.181Z,13.27
2023-05-22T06:16:28.381Z,23.15
2023-05-22T06:17:30.822Z,12.50
2023-05-22T06:18:33.406Z,17.42
2023-05-22T06:19:36.040Z,13.32
2023-05-22T06:20:39.489Z,12.43
2023-05-22T06:21:42.209Z,17.55
2023-05-22T06:22:44.548Z,19.30
2023-05-22T06:23:47.981Z,14.93
2023-05-22T06:24:50.349Z,17.92
2023-05-22T06:25:55.647Z,17.48
2023-05-22T06:26:58.856Z,13.30
2023-05-22T06:28:01.952Z,16.00
2023-05-22T06:29:05.400Z,14.60
2023-05-22T06:30:10.268Z,17.77
2023-05-22T06:31:14.697Z,17.58
2023-05-22T06:32:20.367Z,22.42
2023-05-22T06:33:23.632Z,19.20
2023-05-22T06:34:27.665Z,16.90
2023-05-22T06:35:31.714Z,18.23
2023-05-22T06:36:34.787Z,21.58
2023-05-22T06:37:38.554Z,15.60
2023-05-22T06:38:41.431Z,21.05
2023-05-22T06:39:54.548Z,19.17
2023-05-22T06:41:08.184Z,16.80
2023-05-22T06:42:10.725Z,23.52
2023-05-22T06:43:31.214Z,23.50
2023-05-22T06:44:42.659Z,20.55
2023-05-22T06:45:44.897Z,18.90
2023-05-22T06:47:11.295Z,22.77
2023-05-22T06:48:13.603Z,25.27
2023-05-22T06:49:29.130Z,22.17
2023-05-22T06:50:31.487Z,19.45
2023-05-22T06:51:34.372Z,21.58
2023-05-22T06:52:40.072Z,18.38
2023-05-22T06:53:44.012Z,18.00
2023-05-22T06:54:50.355Z,20.10
2023-05-22T06:55:52.733Z,22.20
2023-05-22T06:57:04.472Z,17.60
2023-05-22T06:58:07.162Z,18.58
2023-05-22T06:59:11.894Z,17.63
2023-05-22T07:00:37.056Z,19.50
2023-05-22T07:01:44.701Z,17.08
2023-05-22T07:02:50.562Z,19.27
2023-05-22T07:04:05.280Z,21.75
2023-05-22T07:05:11.157Z,21.95
2023-05-22T07:06:42.536Z,23.20
2023-05-22T07:07:46.416Z,19.30
2023-05-22T07:08:49.396Z,22.60
2023-05-22T07:09:52.292Z,22.58
2023-05-22T07:10:54.550Z,22.52
2023-05-22T07:11:57.068Z,21.15
2023-05-22T07:12:59.853Z,21.90
2023-05-22T07:14:02.707Z,20.02
2023-05-22T07:15:05.422Z,21.80
2023-05-22T07:16:07.834Z,19.23
2023-05-22T07:17:10.763Z,25.88
2023-05-22T07:18:17.352Z,19.17
2023-05-22T07:19:20.055Z,24.35
2023-05-22T07:20:22.726Z,24.30
2023-05-22T07:21:47.278Z,27.52
2023-05-22T07:22:53.064Z,20.40
2023-05-22T07:23:55.259Z,20.63
2023-05-22T07:24:58.248Z,24.45
2023-05-22T07:26:05.624Z,21.88
2023-05-22T07:27:12.397Z,23.92
2023-05-22T07:28:15.162Z,21.65
2023-05-22T07:29:26.723Z,22.92
2023-05-22T07:30:30.761Z,22.98
2023-05-22T07:31:34.502Z,28.00
2023-05-22T07:32:37.938Z,22.55
2023-05-22T07:33:40.322Z,19.70
2023-05-22T07:34:44.355Z,23.90
2023-05-22T07:35:46.692Z,19.00
2023-05-22T07:36:49.537Z,28.13
2023-05-22T07:37:51.872Z,18.50
2023-05-22T07:38:54.175Z,25.17
2023-05-22T07:39:56.757Z,21.50
2023-05-22T07:40:59.031Z,21.85
2023-05-22T07:42:03.150Z,23.45
2023-05-22T07:43:07.666Z,22.60
2023-05-22T07:44:09.869Z,22.63
2023-05-22T07:45:13.680Z,21.27
2023-05-22T07:46:16.093Z,20.13
2023-05-22T07:47:29.005Z,23.42
2023-05-22T07:48:31.237Z,22.10
2023-05-22T07:49:34.031Z,21.90
2023-05-22T07:50:37.194Z,20.83
2023-05-22T07:51:41.008Z,20.27
2023-05-22T07:52:44.606Z,19.20
2023-05-22T07:53:47.089Z,20.27
2023-05-22T07:54:49.338Z,20.55
2023-05-22T07:55:52.633Z,18.83
2023-05-22T07:56:56.252Z,22.27
2023-05-22T07:57:59.510Z,19.48
2023-05-22T07:59:12.023Z,18.95
2023-05-22T08:00:14.834Z,16.92
2023-05-22T08:01:17.294Z,18.88
2023-05-22T08:02:19.751Z,20.23
2023-05-22T08:03:24.045Z,21.67
2023-05-22T08:04:26.814Z,19.75
2023-05-22T08:05:29.226Z,20.95
2023-05-22T08:06:31.612Z,19.17
2023-05-22T08:07:33.920Z,15.85
2023-05-22T08:08:36.428Z,18.65
2023-05-22T08:09:38.698Z,15.77
2023-05-22T08:10:58.224Z,21.23
2023-05-22T08:12:03.237Z,15.60
2023-05-22T08:13:08.201Z,18.65
2023-05-22T08:14:12.008Z,18.40
2023-05-22T08:15:18.524Z,23.63
2023-05-22T08:16:21.141Z,21.58
2023-05-22T08:17:23.390Z,16.10
2023-05-22T08:18:28.065Z,21.00
2023-05-22T08:19:30.314Z,20.88
2023-05-22T08:20:32.720Z,25.02
2023-05-22T08:21:35.910Z,21.25
2023-05-22T08:22:39.618Z,19.80
2023-05-22T08:23:41.806Z,18.40
2023-05-22T08:24:44.028Z,18.67
2023-05-22T08:25:46.252Z,19.45
2023-05-22T08:26:48.500Z,19.48
2023-05-22T08:27:50.877Z,19.63
2023-05-22T08:28:53.077Z,21.85
2023-05-22T08:29:56.263Z,21.20
2023-05-22T08:30:58.440Z,19.13
2023-05-22T08:32:00.878Z,19.05
2023-05-22T08:33:03.619Z,24.10
2023-05-22T08:34:07.247Z,23.42
2023-05-22T08:35:10.037Z,18.98
2023-05-22T08:36:13.286Z,25.48
2023-05-22T08:37:16.153Z,21.35
2023-05-22T08:38:18.829Z,20.23
2023-05-22T08:39:21.438Z,24.20
2023-05-22T08:40:24.501Z,19.73
2023-05-22T08:41:28.017Z,20.45
2023-05-22T08:42:30.445Z,22.85
2023-05-22T08:43:32.788Z,22.15
2023-05-22T08:44:35.213Z,21.00
2023-05-22T08:45:37.640Z,21.55
2023-05-22T08:46:41.774Z,21.30
2023-05-22T08:47:44.735Z,18.92
2023-05-22T08:48:47.873Z,23.38
2023-05-22T08:49:52.008Z,19.85
2023-05-22T08:50:57.552Z,20.02
2023-05-22T08:52:06.148Z,19.17
2023-05-22T08:53:11.289Z,20.00
2023-05-22T08:54:18.055Z,23.33
2023-05-22T08:55:20.494Z,19.83
2023-05-22T08:56:23.132Z,20.23
2023-05-22T08:57:26.779Z,19.38
2023-05-22T08:58:29.712Z,19.95
2023-05-22T08:59:32.290Z,18.45
2023-05-22T09:00:34.652Z,18.10
2023-05-22T09:01:37.535Z,19.42
2023-05-22T09:02:40.121Z,20.00
2023-05-22T09:03:42.886Z,23.23
2023-05-22T09:04:45.122Z,21.05
2023-05-22T09:05:47.348Z,19.10
2023-05-22T09:06:50.641Z,19.13
2023-05-22T09:07:56.606Z,19.75
2023-05-22T09:09:01.784Z,18.88
2023-05-22T09:10:05.770Z,17.23
2023-05-22T09:11:08.392Z,18.30
2023-05-22T09:12:10.782Z,25.80
2023-05-22T09:13:27.428Z,21.05
2023-05-22T09:14:39.393Z,19.10
2023-05-22T09:15:41.955Z,18.50
2023-05-22T09:16:49.102Z,18.83
2023-05-22T09:17:51.529Z,18.35
2023-05-22T09:18:53.989Z,17.45
2023-05-22T09:20:00.010Z,21.10
2023-05-22T09:21:04.904Z,16.90
2023-05-22T09:22:09.350Z,20.17
2023-05-22T09:23:17.942Z,17.73
2023-05-22T09:24:20.698Z,18.80
2023-05-22T09:25:23.237Z,15.77
2023-05-22T09:26:29.302Z,16.10
2023-05-22T09:27:32.013Z,16.35
2023-05-22T09:28:35.876Z,17.67
2023-05-22T09:30:08.810Z,20.48
2023-05-22T09:31:11.320Z,19.58
2023-05-22T09:32:14.922Z,15.32
2023-05-22T09:33:18.783Z,20.27
2023-05-22T09:34:22.564Z,15.05
2023-05-22T09:35:27.796Z,21.92
2023-05-22T09:36:33.082Z,18.75
2023-05-22T09:37:36.401Z,15.88
2023-05-22T09:38:39.796Z,20.15
2023-05-22T09:39:47.038Z,18.10
2023-05-22T09:40:54.430Z,18.75
2023-05-22T09:42:01.425Z,16.02
2023-05-22T09:43:11.381Z,17.17
2023-05-22T09:44:15.074Z,17.17
2023-05-22T09:45:22.933Z,19.42
2023-05-22T09:46:25.504Z,21.98
2023-05-22T09:47:27.827Z,21.58
2023-05-22T09:48:35.930Z,21.05
2023-05-22T09:49:47.124Z,19.52
2023-05-22T09:50:53.496Z,16.60
2023-05-22T09:51:57.426Z,24.08
2023-05-22T09:53:04.522Z,21.00
2023-05-22T09:54:09.428Z,19.77
2023-05-22T09:55:14.138Z,21.02
2023-05-22T09:56:24.267Z,19.00
2023-05-22T09:57:43.024Z,22.10
2023-05-22T09:58:47.686Z,19.35
2023-05-22T09:59:55.169Z,21.88
2023-05-22T10:00:58.218Z,25.17
2023-05-22T10:02:02.264Z,18.23
2023-05-22T10:03:16.114Z,23.33
2023-05-22T10:04:18.880Z,22.42
2023-05-22T10:05:22.808Z,19.88
2023-05-22T10:06:26.961Z,19.95
2023-05-22T10:07:37.461Z,17.92
2023-05-22T10:08:44.597Z,18.80
2023-05-22T10:09:52.397Z,20.83
2023-05-22T10:10:55.408Z,17.23
2023-05-22T10:12:00.764Z,17.70
2023-05-22T10:13:06.626Z,19.38
2023-05-22T10:14:09.524Z,18.55
2023-05-22T10:15:12.983Z,18.35
2023-05-22T10:16:16.839Z,18.15
2023-05-22T10:17:19.873Z,17.13
2023-05-22T10:18:22.209Z,17.30
2023-05-22T10:19:27.349Z,19.80
2023-05-22T10:20:30.574Z,21.63
2023-05-22T10:21:33.611Z,17.30
2023-05-22T10:22:38.120Z,17.70
2023-05-22T10:23:41.513Z,20.45
2023-05-22T10:24:46.269Z,20.83
2023-05-22T10:25:49.648Z,21.88
2023-05-22T10:26:54.476Z,19.70
2023-05-22T10:27:59.061Z,17.17
2023-05-22T10:29:09.748Z,18.85
2023-05-22T10:31:46.091Z,16.20
2023-05-22T10:33:06.422Z,17.17
2023-05-22T10:34:13.029Z,18.95
2023-05-22T10:35:32.603Z,22.35
2023-05-22T10:37:13.235Z,23.85
2023-05-22T10:38:38.065Z,16.35
2023-05-22T10:39:49.407Z,17.50
2023-05-22T10:40:52.134Z,20.23
2023-05-22T10:41:54.525Z,28.02
2023-05-22T10:43:02.357Z,18.48
2023-05-22T10:44:04.708Z,19.75
2023-05-22T10:45:08.209Z,20.58
2023-05-22T10:46:13.075Z,17.83
2023-05-22T10:47:15.813Z,19.88
2023-05-22T10:48:23.022Z,19.23
2023-05-22T10:49:26.159Z,18.88
2023-05-22T10:50:28.502Z,19.92
2023-05-22T10:51:32.466Z,17.27
2023-05-22T10:52:35.989Z,23.40
2023-05-22T10:53:40.450Z,19.77
2023-05-22T10:54:44.440Z,18.25
2023-05-22T10:55:48.331Z,21.48
2023-05-22T10:56:50.752Z,20.10
2023-05-22T10:57:56.918Z,19.52
2023-05-22T10:59:08.160Z,21.73
2023-05-22T11:00:13.249Z,19.98
2023-05-22T11:01:21.250Z,20.40
2023-05-22T11:02:29.950Z,24.40
2023-05-22T11:03:50.917Z,23.67
